Terminal Aerodrome Forecast
Issued by NWS

Home | Current Version | Previous Version | Text Only | Print | Product List | Glossary On
Versions: 1 2 3 4 5 6 7 8 9 10 11 12 13 14 15 16 17
000
FTPQ31 PGUM 252322
TAFGUM
TAF

TAF
PGRO 252322Z 2600/2624 13010G20KT P6SM VCSH SCT012 BKN040 OVC080
     FM260200 10011KT P6SM VCSH SCT015 SCT040 BKN120
     FM260900 09008KT P6SM VCSH FEW015 SCT050 BKN120=

USA.gov is the U.S. government's official web portal to all federal, state and local government web resources and services.